Time;durP1;ratioP1;P1;durP2;ratioP2;P2;SDS_P1;SDS_P2;PMS_P1;PMS_P2;Temp;Humidity;BMP_temperature;BMP_pressure;BME280_temperature;BME280_humidity;BME280_pressure;Samples;Min_cycle;Max_cycle;Signal;HPM_P1;HPM_P2
2024/04/18 00:01:18;;;;;;;3.33;0.93;;;2.20;99.90;;;0.62;87.54;100843.44;5228116;26;20012;-82
2024/04/18 00:03:46;;;;;;;1.40;1.05;;;2.10;99.90;;;0.57;87.42;100834.84;5212797;27;20785;-81
2024/04/18 00:06:12;;;;;;;6.25;1.48;;;2.10;99.90;;;0.56;87.63;100841.75;5262212;26;20433;-80
2024/04/18 00:08:38;;;;;;;2.47;1.35;;;2.10;99.90;;;0.55;87.39;100837.41;5289523;26;20061;-82
2024/04/18 00:11:04;;;;;;;1.60;1.10;;;2.10;99.90;;;0.54;88.11;100840.00;5268592;26;20019;-81
2024/04/18 00:13:39;;;;;;;3.95;1.20;;;2.10;99.90;;;0.56;88.18;100848.63;5207534;27;20011;-80
2024/04/18 00:16:05;;;;;;;5.05;1.35;;;;;;;0.54;88.29;100843.47;5216882;26;20012;-81
2024/04/18 00:18:31;;;;;;;2.08;1.33;;;2.00;99.90;;;0.54;88.30;100838.31;5213256;27;20063;-81
2024/04/18 00:20:57;;;;;;;4.57;1.10;;;2.10;99.90;;;0.53;88.31;100839.16;5266802;26;20019;-82
2024/04/18 00:23:30;;;;;;;5.72;1.65;;;2.00;99.90;;;0.53;88.32;100846.06;5222174;26;20072;-81
2024/04/18 00:25:55;;;;;;;7.88;1.63;;;2.10;99.90;;;0.52;88.47;100847.81;5239866;26;20001;-82
2024/04/18 00:28:21;;;;;;;2.50;1.30;;;2.00;99.90;;;0.55;88.80;100852.97;5264235;26;20076;-80
2024/04/18 00:30:47;;;;;;;3.05;1.88;;;2.00;99.90;;;0.53;88.80;100846.94;5239226;26;19997;-81
2024/04/18 00:33:13;;;;;;;4.45;1.50;;;2.00;99.90;;;0.54;88.96;100848.66;5227489;26;20469;-80
2024/04/18 00:35:46;;;;;;;4.63;1.48;;;2.00;99.90;;;0.54;88.93;100855.56;5215443;26;20014;-82
2024/04/18 00:38:13;;;;;;;6.28;1.63;;;2.00;99.90;;;0.52;89.30;100853.00;5216093;26;20022;-81
2024/04/18 00:40:39;;;;;;;1.58;1.30;;;2.00;99.90;;;0.51;88.94;100856.44;5232635;26;20337;-82
2024/04/18 00:43:05;;;;;;;3.75;1.45;;;2.00;99.90;;;0.51;89.04;100859.03;5229152;26;20064;-82
2024/04/18 00:45:36;;;;;;;2.42;1.52;;;2.00;99.90;;;0.49;89.06;100865.09;5223223;26;20013;-81
2024/04/18 00:48:02;;;;;;;1.65;1.20;;;2.00;99.90;;;0.43;89.01;100853.00;5186502;26;20009;-82
2024/04/18 00:50:28;;;;;;;2.42;1.30;;;1.90;99.90;;;0.40;88.91;100859.06;5272972;26;20016;-82
2024/04/18 00:52:56;;;;;;;3.50;1.20;;;1.90;99.90;;;0.41;88.77;100852.13;5251026;26;20067;-81
2024/04/18 00:55:22;;;;;;;2.58;1.52;;;1.90;99.90;;;0.42;88.71;100859.06;5191172;26;20771;-82
2024/04/18 00:57:50;;;;;;;1.65;1.35;;;1.90;99.90;;;0.42;89.33;100855.63;5254373;26;20010;-82
2024/04/18 01:00:17;;;;;;;2.25;1.30;;;1.90;99.90;;;0.42;89.05;100858.19;5202676;26;20001;-82
2024/04/18 01:02:43;;;;;;;2.40;1.50;;;1.90;99.90;;;0.42;89.22;100863.38;5222773;26;20019;-81
2024/04/18 01:05:08;;;;;;;5.03;1.50;;;1.90;99.90;;;0.41;89.51;100857.31;5214609;26;20005;-80
2024/04/18 01:07:34;;;;;;;6.30;1.50;;;1.90;99.90;;;0.40;89.38;100853.88;5200571;27;20017;-82
2024/04/18 01:10:00;;;;;;;6.10;1.65;;;1.90;99.90;;;0.39;89.32;100859.09;5229652;26;20053;-82
2024/04/18 01:12:26;;;;;;;2.53;1.67;;;1.90;99.90;;;0.39;89.76;100862.53;5204957;26;20013;-82
2024/04/18 01:14:59;;;;;;;4.72;1.40;;;1.90;99.90;;;0.38;89.54;100865.09;5230517;26;20075;-81
2024/04/18 01:17:25;;;;;;;2.10;1.45;;;1.90;99.90;;;0.35;89.71;100870.31;5231828;26;20093;-81
2024/04/18 01:19:51;;;;;;;2.25;1.33;;;1.80;99.90;;;0.31;89.97;100863.41;5218610;26;20006;-81
2024/04/18 01:22:18;;;;;;;1.30;1.15;;;1.80;99.90;;;0.26;89.60;100871.19;5204639;26;20461;-81
2024/04/18 01:24:46;;;;;;;2.65;1.30;;;1.80;99.90;;;0.26;89.43;100862.53;5194991;26;20038;-81
2024/04/18 01:27:12;;;;;;;1.48;1.10;;;1.80;99.90;;;0.24;89.55;100866.84;5210359;26;20006;-82
2024/04/18 01:29:38;;;;;;;3.00;1.75;;;1.80;99.90;;;0.22;89.91;100866.00;5233853;26;20084;-81
2024/04/18 01:32:04;;;;;;;4.07;1.52;;;1.70;99.90;;;0.16;90.13;100870.34;5234371;26;21864;-82
2024/04/18 01:34:30;;;;;;;5.60;1.52;;;1.70;99.90;;;0.12;89.93;100863.44;5237189;26;20456;-82
2024/04/18 01:36:56;;;;;;;3.85;1.80;;;1.70;99.90;;;0.11;90.42;100863.41;5245463;26;20062;-82
2024/04/18 01:39:21;;;;;;;5.00;1.77;;;1.60;99.90;;;0.09;90.39;100867.78;5174608;26;20034;-81
2024/04/18 01:41:52;;;;;;;3.83;1.58;;;1.60;99.90;;;0.05;90.56;100866.91;5215763;26;20009;-82
2024/04/18 01:44:17;;;;;;;8.75;1.67;;;1.60;99.90;;;0.01;90.27;100862.59;5205750;26;19996;-81
2024/04/18 01:46:43;;;;;;;4.25;1.77;;;1.50;99.90;;;-0.01;90.35;100869.50;5192692;26;20013;-81
2024/04/18 01:49:09;;;;;;;4.07;2.10;;;1.50;99.90;;;-0.05;90.42;100871.22;5267067;26;20408;-81
2024/04/18 01:51:35;;;;;;;3.45;1.77;;;1.50;99.90;;;-0.09;90.55;100871.22;5226831;26;20056;-81
2024/04/18 01:54:01;;;;;;;5.45;1.80;;;1.40;99.90;;;-0.10;90.97;100870.38;5211418;27;20002;-81
2024/04/18 01:56:34;;;;;;;2.95;2.00;;;1.40;99.90;;;-0.10;91.44;100874.69;5242907;26;20001;-82
2024/04/18 01:59:04;;;;;;;2.83;1.50;;;1.40;99.90;;;-0.10;91.15;100879.88;5242031;26;20006;-81
2024/04/18 02:01:30;;;;;;;3.70;1.63;;;1.40;99.90;;;-0.10;91.76;100879.88;5225634;26;20014;-80
2024/04/18 02:03:59;;;;;;;4.00;1.67;;;1.40;99.90;;;-0.08;91.81;100878.13;5194797;26;20017;-82
2024/04/18 02:06:25;;;;;;;7.32;1.60;;;1.40;99.90;;;-0.08;91.52;100883.31;5199979;26;20027;-82
2024/04/18 02:08:51;;;;;;;5.25;1.80;;;1.50;99.90;;;-0.09;91.60;100885.00;5254025;26;20004;-81
2024/04/18 02:11:16;;;;;;;3.25;1.75;;;1.50;99.90;;;-0.09;91.72;100876.41;5255690;26;20054;-82
2024/04/18 02:13:42;;;;;;;6.43;2.00;;;1.40;99.90;;;-0.08;92.11;100883.31;5215698;27;20013;-82
2024/04/18 02:16:11;;;;;;;6.90;1.75;;;1.40;99.90;;;-0.09;91.98;100881.56;5253971;26;20365;-84
2024/04/18 02:18:41;;;;;;;5.65;2.03;;;1.40;99.90;;;-0.10;91.91;100878.13;5216055;26;20474;-82
2024/04/18 02:21:07;;;;;;;10.43;2.17;;;1.40;99.90;;;-0.11;92.17;100884.19;5237025;27;20000;-82
2024/04/18 02:23:33;;;;;;;3.10;1.80;;;1.40;99.90;;;-0.13;92.02;100890.19;5232616;26;20021;-81
2024/04/18 02:25:59;;;;;;;4.45;1.55;;;1.40;99.90;;;-0.14;92.18;100883.31;5238167;26;20001;-82
2024/04/18 02:28:25;;;;;;;3.60;1.75;;;1.40;99.90;;;-0.18;91.67;100874.69;5265762;26;20018;-81
2024/04/18 02:30:55;;;;;;;2.78;2.03;;;1.40;99.90;;;-0.18;91.83;100881.59;5242908;26;20058;-81
2024/04/18 02:33:21;;;;;;;13.43;2.30;;;1.30;99.90;;;-0.21;92.05;100887.63;5218204;27;20009;-80
2024/04/18 02:35:47;;;;;;;3.30;1.70;;;1.30;99.90;;;-0.24;92.00;100872.97;5227937;26;20012;-82
2024/04/18 02:38:13;;;;;;;6.35;2.28;;;1.30;99.90;;;-0.27;92.10;100878.13;5244111;26;20013;-80
2024/04/18 02:40:39;;;;;;;5.72;2.05;;;1.30;99.90;;;-0.29;92.15;100872.09;5217874;26;20721;-82
2024/04/18 02:43:12;;;;;;;4.68;2.20;;;1.20;99.90;;;-0.30;92.58;100877.25;5227010;26;20007;-82
2024/04/18 02:45:38;;;;;;;3.63;1.90;;;1.20;99.90;;;-0.31;92.32;100876.41;5249220;26;20212;-82
2024/04/18 02:48:04;;;;;;;5.63;2.00;;;1.20;99.90;;;-0.33;92.46;100877.25;5255855;26;20033;-80
2024/04/18 02:50:30;;;;;;;5.85;2.38;;;1.20;99.90;;;-0.36;92.48;100867.78;5188174;26;19998;-82
2024/04/18 02:52:55;;;;;;;5.75;2.10;;;1.20;99.90;;;-0.40;92.30;100871.22;5227540;26;20070;-83
2024/04/18 02:55:22;;;;;;;4.22;2.10;;;1.10;99.90;;;-0.42;92.47;100873.81;5211283;27;20006;-82
2024/04/18 02:57:53;;;;;;;7.18;2.35;;;1.10;99.90;;;-0.45;92.52;100871.22;5214714;26;20002;-83
2024/04/18 03:00:19;;;;;;;3.80;2.08;;;1.10;99.90;;;-0.48;92.20;100873.78;5164313;26;20012;-82
2024/04/18 03:02:45;;;;;;;7.93;2.17;;;1.10;99.90;;;-0.49;92.36;100871.22;5194555;26;20488;-82
2024/04/18 03:05:10;;;;;;;6.97;2.50;;;1.10;99.90;;;-0.48;92.61;100883.28;5233401;26;20057;-82
2024/04/18 03:07:36;;;;;;;9.57;2.67;;;1.10;99.90;;;-0.50;92.53;100880.69;5208439;26;20006;-83
2024/04/18 03:10:02;;;;;;;5.55;2.67;;;1.00;99.90;;;-0.49;93.03;100887.59;5232962;26;20009;-82
2024/04/18 03:12:33;;;;;;;3.95;2.50;;;1.10;99.90;;;-0.47;93.07;100879.84;5196150;26;20033;-82
2024/04/18 03:14:59;;;;;;;4.93;2.53;;;1.00;99.90;;;-0.47;92.90;100880.72;5201178;26;20031;-82
2024/04/18 03:17:25;;;;;;;6.15;2.83;;;1.10;99.90;;;-0.45;93.27;100886.75;5261747;26;20005;-82
2024/04/18 03:19:50;;;;;;;7.85;2.58;;;1.10;99.90;;;-0.45;93.30;100884.16;5192958;26;20022;-82
2024/04/18 03:22:16;;;;;;;6.95;2.40;;;1.10;99.90;;;-0.47;93.15;100893.63;5223428;26;20014;-82
2024/04/18 03:24:42;;;;;;;4.32;2.35;;;1.10;99.90;;;-0.47;93.60;100879.84;5177739;27;20416;-81
2024/04/18 03:27:13;;;;;;;5.30;2.88;;;1.10;99.90;;;-0.48;93.47;100885.88;5193146;26;20057;-82
2024/04/18 03:29:38;;;;;;;8.13;2.80;;;1.10;99.90;;;-0.46;93.50;100889.31;5244014;26;20017;-82
2024/04/18 03:32:05;;;;;;;6.80;2.72;;;1.10;99.90;;;-0.46;93.48;100886.75;5233806;26;20017;-81
2024/04/18 03:34:31;;;;;;;5.28;2.75;;;1.10;99.90;;;-0.44;93.81;100890.19;5177934;27;20678;-81
2024/04/18 03:36:57;;;;;;;4.25;2.33;;;1.10;99.90;;;-0.43;93.76;100899.69;5216232;27;19999;-82
2024/04/18 03:39:30;;;;;;;5.30;2.30;;;1.10;99.90;;;-0.43;93.49;100890.19;5222306;26;20371;-81
2024/04/18 03:41:56;;;;;;;6.25;2.92;;;1.10;99.90;;;-0.39;93.74;100890.19;5144522;27;20015;-82
2024/04/18 03:44:22;;;;;;;9.82;3.72;;;1.20;99.90;;;-0.35;93.72;100894.50;5229047;26;20071;-81
2024/04/18 03:46:47;;;;;;;6.07;3.72;;;1.20;99.90;;;-0.33;93.88;100903.13;5227233;26;20029;-83
2024/04/18 03:49:13;;;;;;;10.18;4.70;;;1.20;99.90;;;-0.32;94.32;100895.38;5215020;26;19996;-81
2024/04/18 03:51:45;;;;;;;7.95;4.63;;;;;;;-0.30;94.16;100892.78;5225229;26;20413;-83
2024/04/18 03:54:11;;;;;;;7.70;4.30;;;1.20;99.90;;;-0.29;94.34;100886.75;5207147;26;20005;-82
2024/04/18 03:56:37;;;;;;;12.45;4.18;;;1.20;99.90;;;-0.27;94.08;100893.66;5238797;26;20040;-82
2024/04/18 03:59:02;;;;;;;9.60;4.82;;;1.30;99.90;;;-0.25;94.47;100899.69;5202777;26;21607;-82
2024/04/18 04:01:29;;;;;;;10.85;4.80;;;1.30;99.90;;;-0.26;94.38;100895.41;5203335;26;20009;-82
2024/04/18 04:04:02;;;;;;;9.82;4.10;;;1.30;99.90;;;-0.24;94.57;100903.13;5214142;27;20002;-83
2024/04/18 04:06:28;;;;;;;8.10;4.13;;;1.30;99.90;;;-0.24;94.35;100903.13;5222756;26;19999;-83
2024/04/18 04:08:54;;;;;;;11.63;4.68;;;1.30;99.90;;;-0.25;94.33;100902.28;5219130;26;20041;-83
2024/04/18 04:11:20;;;;;;;8.05;4.47;;;1.30;99.90;;;-0.27;94.07;100909.19;5215171;26;20468;-83
2024/04/18 04:13:50;;;;;;;11.38;5.00;;;1.30;99.90;;;-0.26;94.03;100912.63;5208487;26;20009;-83
2024/04/18 04:16:24;;;;;;;18.48;4.85;;;1.30;99.90;;;-0.25;94.17;100917.81;5217707;26;20065;-82
2024/04/18 04:18:54;;;;;;;8.23;3.88;;;1.30;99.90;;;-0.23;94.33;100923.84;5183244;26;20022;-82
2024/04/18 04:21:22;;;;;;;11.65;4.13;;;1.30;99.90;;;-0.21;93.81;100919.53;5232748;26;20001;-83
2024/04/18 04:23:48;;;;;;;7.38;3.63;;;1.30;99.90;;;-0.15;94.24;100928.16;5220975;26;20097;-82
2024/04/18 04:26:13;;;;;;;6.10;3.60;;;1.40;99.90;;;-0.10;94.33;100926.44;5205613;26;20018;-82
2024/04/18 04:28:39;;;;;;;8.65;4.50;;;1.40;99.90;;;-0.07;94.10;100926.44;5215404;26;20117;-83
2024/04/18 04:31:05;;;;;;;9.93;4.50;;;1.50;99.90;;;-0.02;94.26;100924.75;5253191;26;20076;-83
2024/04/18 04:33:37;;;;;;;13.82;5.38;;;1.50;99.90;;;0.06;94.40;100935.94;5209285;26;20414;-82
2024/04/18 04:36:03;;;;;;;12.65;5.60;;;1.60;99.90;;;0.13;94.85;100935.09;5230054;26;20032;-82
2024/04/18 04:38:30;;;;;;;16.17;7.60;;;1.70;99.90;;;0.23;95.01;100930.75;5250446;26;19994;-82
2024/04/18 04:40:55;;;;;;;16.40;7.65;;;1.70;99.90;;;0.33;95.16;100936.81;5219706;26;20451;-80
2024/04/18 04:43:21;;;;;;;19.33;7.15;;;1.80;99.90;;;0.43;95.39;100937.63;5207480;26;20013;-83
2024/04/18 04:45:53;;;;;;;16.52;6.90;;;1.90;99.90;;;0.51;95.38;100941.94;5228992;26;21385;-82
2024/04/18 04:48:19;;;;;;;10.68;5.30;;;2.00;99.90;;;0.60;95.86;100949.72;5211898;26;20013;-82
2024/04/18 04:50:58;;;;;;;7.88;4.47;;;2.10;99.90;;;0.70;95.82;100947.09;5243719;26;20041;-82
2024/04/18 04:53:24;;;;;;;7.30;4.03;;;2.20;99.90;;;0.78;95.68;100950.53;5246862;26;20022;-81
2024/04/18 04:55:50;;;;;;;6.80;3.95;;;2.30;99.90;;;0.85;96.15;100961.75;5256283;26;20729;-81
2024/04/18 04:58:16;;;;;;;9.00;3.67;;;2.30;99.90;;;0.92;95.91;100959.09;5240446;26;20033;-82
2024/04/18 05:00:42;;;;;;;7.10;3.47;;;2.40;99.90;;;0.98;96.53;100966.88;5194752;26;20002;-81
2024/04/18 05:03:11;;;;;;;8.32;4.28;;;2.40;99.90;;;1.04;96.08;100973.78;5246974;26;20123;-82
2024/04/18 05:05:41;;;;;;;8.43;3.00;;;2.50;99.90;;;1.11;96.29;100977.22;5214954;26;20011;-82
2024/04/18 05:08:07;;;;;;;7.60;3.20;;;2.60;99.90;;;1.13;96.38;100960.78;5194840;26;20065;-82
2024/04/18 05:10:32;;;;;;;7.97;3.38;;;2.60;99.90;;;1.19;96.63;100971.13;5218987;26;20072;-80
2024/04/18 05:13:01;;;;;;;5.65;3.17;;;2.70;99.90;;;1.24;96.57;100973.69;5234837;26;20001;-81
2024/04/18 05:15:29;;;;;;;6.13;3.10;;;2.70;99.90;;;1.28;96.54;100974.56;5165702;26;19998;-81
2024/04/18 05:17:55;;;;;;;5.40;3.05;;;2.70;99.90;;;1.32;96.54;100984.91;5226648;26;20009;-81
2024/04/18 05:20:21;;;;;;;8.35;3.30;;;2.80;99.90;;;1.37;96.71;100974.50;5223660;26;20109;-81
2024/04/18 05:22:47;;;;;;;8.50;3.13;;;2.80;99.90;;;1.41;96.59;100974.47;5210636;27;20024;-81
2024/04/18 05:25:13;;;;;;;5.88;3.22;;;2.90;99.90;;;1.44;96.57;100979.66;5222670;26;20011;-81
2024/04/18 05:27:53;;;;;;;6.57;3.10;;;2.90;99.90;;;1.48;96.57;100979.66;5228905;26;20021;-81
2024/04/18 05:33:10;;;;;;;6.15;3.30;;;3.00;99.90;;;1.54;96.08;100984.81;5208956;26;20520;-81
2024/04/18 05:35:36;;;;;;;6.32;3.75;;;3.00;99.90;;;1.57;96.11;100984.78;5247559;26;20001;-79
2024/04/18 05:38:02;;;;;;;5.88;3.30;;;3.10;99.90;;;1.61;96.24;100991.69;5241681;26;20010;-80
2024/04/18 05:40:30;;;;;;;9.95;3.35;;;3.10;99.90;;;1.66;96.25;100989.91;5257188;26;20001;-81
2024/04/18 05:42:56;;;;;;;6.75;3.65;;;3.10;99.90;;;1.70;96.58;100994.22;5253771;26;19998;-80
2024/04/18 05:45:22;;;;;;;6.50;3.40;;;3.20;99.90;;;1.76;96.50;100996.78;5247317;26;20013;-80
2024/04/18 05:47:48;;;;;;;7.25;3.40;;;3.20;99.90;;;1.82;96.48;100996.75;5233103;26;20001;-80
2024/04/18 05:50:14;;;;;;;13.80;4.07;;;3.30;99.90;;;1.89;96.54;101010.56;5222740;26;20006;-79
2024/04/18 05:52:39;;;;;;;7.53;3.75;;;3.30;99.90;;;1.95;96.46;101010.53;5195404;26;20029;-80
2024/04/18 05:55:05;;;;;;;8.35;4.22;;;3.40;99.90;;;2.03;96.61;101006.13;5219334;26;20033;-80
2024/04/18 05:57:33;;;;;;;7.00;4.20;;;3.50;99.90;;;2.10;97.15;101006.09;5197578;26;20011;-80
2024/04/18 06:00:03;;;;;;;8.68;5.05;;;;;;;2.21;96.93;101005.13;5243846;26;20013;-85
2024/04/18 06:02:32;;;;;;;8.88;4.30;;;;;;;2.33;96.81;101011.09;5204641;27;20049;-88
2024/04/18 06:05:13;;;;;;;8.73;4.18;;;;;;;2.47;97.32;101012.72;5163603;27;20296;-87
2024/04/18 06:08:04;;;;;;;10.07;4.40;;;3.90;99.90;;;2.63;97.49;101012.56;5236092;26;20008;-87
2024/04/18 06:10:33;;;;;;;9.15;4.35;;;;;;;2.76;98.13;101016.78;5138561;27;20006;-87
2024/04/18 06:13:43;;;;;;;10.98;4.45;;;4.20;99.90;;;2.95;98.14;101021.81;5151142;27;20007;-87
2024/04/18 06:16:10;;;;;;;7.18;3.95;;;;;;;3.04;98.29;101032.97;4929866;28;20782;-87
2024/04/18 06:18:44;;;;;;;6.30;4.00;;;;;;;3.17;98.02;101032.84;5000637;28;21345;-86
2024/04/18 06:21:13;;;;;;;6.35;4.05;;;;;;;3.27;97.95;101031.84;4933473;28;20013;-86
2024/04/18 06:24:03;;;;;;;8.32;4.57;;;4.70;99.90;;;3.41;97.99;101039.50;4982452;28;20050;-87
2024/04/18 06:26:34;;;;;;;8.57;4.28;;;4.80;99.90;;;3.60;98.27;101034.94;4955753;28;20010;-87
2024/04/18 06:29:20;;;;;;;7.88;4.30;;;5.00;99.90;;;3.79;98.31;101031.19;4984883;27;20013;-87
2024/04/18 06:31:49;;;;;;;6.65;4.00;;;5.20;99.90;;;3.98;98.38;101037.00;4994348;27;20516;-87
2024/04/18 06:34:15;;;;;;;6.53;4.03;;;;;;;4.21;98.21;101038.41;5044782;27;20107;-87
2024/04/18 06:36:41;;;;;;;6.45;3.47;;;5.60;99.90;;;4.46;97.93;101044.09;5024920;27;20010;-85
2024/04/18 06:39:33;;;;;;;6.53;3.42;;;5.80;99.90;;;4.64;97.64;101054.22;5026058;27;20076;-88
2024/04/18 06:43:27;;;;;;;;;;;;;;;;;;;;;
2024/04/18 06:49:13;;;;;;;5.60;3.13;;;;;;;4.66;94.53;101055.06;4917905;28;20024;-86
2024/04/18 06:52:03;;;;;;;6.75;2.90;;;6.00;99.90;;;4.67;94.07;101056.78;4957723;28;20022;-87
2024/04/18 06:54:33;;;;;;;4.22;2.55;;;;;;;4.76;93.81;101057.53;4929178;28;20119;-87
2024/04/18 06:57:24;;;;;;;3.75;2.20;;;6.10;99.90;;;4.82;93.63;101053.06;4988247;27;20002;-87
2024/04/18 06:59:52;;;;;;;5.35;2.90;;;;;;;4.93;93.35;101056.34;5027354;27;20027;-87
2024/04/18 07:02:34;;;;;;;5.18;3.20;;;;;;;5.11;93.04;101062.09;5049496;27;20357;-87
2024/04/18 07:05:42;;;;;;;3.75;2.15;;;;;;;5.22;92.98;101064.50;5019731;28;20075;-87
2024/04/18 07:08:24;;;;;;;11.20;2.33;;;;;;;5.43;91.68;101071.94;4991291;27;20019;-87
2024/04/18 07:11:34;;;;;;;3.20;2.30;;;6.70;99.90;;;5.74;91.13;101069.56;5062209;27;20006;-87
2024/04/18 07:14:11;;;;;;;4.28;2.30;;;;;;;6.04;89.94;101075.03;5074897;27;20005;-86
2024/04/18 07:16:52;;;;;;;3.55;2.38;;;;;;;6.35;88.88;101082.19;5037664;27;20053;-87
2024/04/18 07:19:21;;;;;;;3.97;2.40;;;7.60;99.90;;;6.60;87.31;101079.00;4990935;28;20163;-87
2024/04/18 07:22:12;;;;;;;4.05;2.28;;;7.90;99.90;;;6.89;86.36;101086.97;4995781;28;20015;-87
2024/04/18 07:25:13;;;;;;;4.22;2.47;;;;;;;7.29;86.33;101093.78;4983486;28;20015;-85
2024/04/18 07:27:52;;;;;;;2.80;2.00;;;;;;;7.63;84.94;101094.63;4981877;28;20473;-87
2024/04/18 07:30:45;;;;;;;4.63;2.58;;;8.80;99.90;;;7.85;83.12;101082.59;4977545;28;20011;-87
2024/04/18 07:34:14;;;;;;;4.72;2.38;;;9.10;99.90;;;8.20;81.69;101099.03;4991414;28;20106;-87
2024/04/18 07:37:23;;;;;;;6.53;2.15;;;9.50;99.90;;;8.54;81.33;101098.84;5023662;28;20007;-87
2024/04/18 07:40:23;;;;;;;3.83;2.05;;;;;;;8.84;80.09;101109.25;4986147;28;20023;-86
2024/04/18 07:43:00;;;;;;;;;;;;;;;;;;;;;
2024/04/18 07:45:39;;;;;;;;;;;;;;;;;;;;;
2024/04/18 07:48:07;;;;;;;5.97;1.95;;;;;;;9.72;77.44;101121.97;4969005;28;20007;-87
2024/04/18 07:54:13;;;;;;;4.07;1.95;;;;;;;8.83;77.02;101118.91;4923812;28;20013;-86
2024/04/18 07:57:11;;;;;;;3.10;2.00;;;10.30;99.90;;;9.19;76.39;101112.47;5015630;28;20013;-85
2024/04/18 08:03:04;;;;;;;3.28;1.70;;;10.70;99.90;;;9.80;75.61;101117.28;4948331;28;20478;-86
2024/04/18 08:05:45;;;;;;;6.00;1.77;;;11.00;99.90;;;10.17;75.05;101126.41;4928721;28;20019;-86
2024/04/18 08:08:57;;;;;;;2.83;1.80;;;11.30;99.90;;;10.34;74.27;101134.53;4898804;28;20251;-86
2024/04/18 08:12:23;;;;;;;2.75;1.90;;;;;;;10.42;73.82;101132.47;4778481;29;20016;-87
2024/04/18 08:14:34;;;;;;;6.15;1.90;;;;;;;9.85;74.55;101131.13;4715441;29;1445141;-86
2024/04/18 08:17:24;;;;;;;5.45;2.00;;;;;;;9.41;75.44;101129.19;4758900;29;20013;-86
2024/04/18 08:20:56;;;;;;;2.85;2.13;;;;;;;9.91;76.42;101132.66;4815366;29;20474;-85
2024/04/18 08:23:31;;;;;;;4.13;2.10;;;11.40;99.90;;;10.58;75.98;101138.00;4704070;29;20110;-84
2024/04/18 08:25:57;;;;;;;3.67;2.10;;;11.50;99.90;;;10.01;74.61;101132.25;4735535;29;24026;-86
2024/04/18 08:28:24;;;;;;;4.35;2.00;;;;;;;9.74;75.48;101128.03;4682539;29;20034;-84
2024/04/18 08:31:13;;;;;;;4.50;2.15;;;11.30;99.90;;;9.94;74.78;101135.19;4698726;29;21323;-85
2024/04/18 08:33:42;;;;;;;2.55;1.75;;;;;;;9.78;75.10;101135.78;4714242;29;20018;-88
2024/04/18 08:36:08;;;;;;;5.97;2.20;;;;;;;10.34;76.28;101134.53;4700163;29;20078;-84
2024/04/18 08:38:43;;;;;;;5.57;2.20;;;;;;;10.54;75.14;101136.41;4751214;29;20016;-85
2024/04/18 08:41:13;;;;;;;3.47;1.73;;;11.50;99.90;;;10.16;73.63;101135.25;4730507;29;20015;-85
2024/04/18 08:43:52;;;;;;;6.93;1.90;;;11.50;99.90;;;9.97;73.44;101132.44;4825372;29;20022;-84
2024/04/18 08:46:26;;;;;;;2.50;1.50;;;11.40;99.90;;;9.82;72.79;101128.59;4871880;28;20017;-83
2024/04/18 08:48:52;;;;;;;4.57;1.65;;;11.40;99.90;;;10.03;73.94;101119.91;4911664;28;20012;-83
2024/04/18 08:51:21;;;;;;;3.10;1.63;;;;;;;10.27;73.38;101127.78;4917328;28;20758;-84
2024/04/18 08:53:56;;;;;;;2.22;1.50;;;11.60;99.90;;;10.23;72.61;101120.91;5019307;27;20056;-83
2024/04/18 08:56:25;;;;;;;4.07;1.42;;;;;;;10.21;72.38;101122.75;5085760;27;20007;-83
2024/04/18 08:59:00;;;;;;;2.72;1.48;;;11.50;99.90;;;9.72;71.30;101120.22;5174235;26;20024;-82
2024/04/18 09:01:26;;;;;;;3.00;1.40;;;11.40;99.90;;;9.93;70.45;101128.19;5203701;26;19998;-83
2024/04/18 09:04:01;;;;;;;3.50;1.55;;;11.40;99.90;;;10.15;71.11;101128.25;5229229;26;20018;-82
2024/04/18 09:06:30;;;;;;;2.13;1.20;;;;;;;10.07;68.71;101129.41;5220741;26;20001;-82
2024/04/18 09:09:00;;;;;;;1.83;1.15;;;11.40;99.90;;;9.61;68.83;101123.22;5244950;26;20002;-83
2024/04/18 09:12:03;;;;;;;4.07;1.30;;;11.20;99.90;;;9.49;69.42;101112.31;5222311;26;20007;-83
2024/04/18 09:14:32;;;;;;;3.75;1.35;;;11.00;99.90;;;9.73;69.14;101115.81;5210953;27;20482;-85
2024/04/18 09:16:58;;;;;;;5.22;1.50;;;11.10;99.90;;;9.80;70.39;101112.03;5122651;27;20380;-83
2024/04/18 09:19:30;;;;;;;3.00;1.10;;;;;;;9.65;68.61;101118.69;5215775;26;20012;-84
2024/04/18 09:21:59;;;;;;;4.60;1.00;;;11.20;99.90;;;9.85;67.71;101115.34;5135351;27;20017;-85
2024/04/18 09:24:32;;;;;;;2.67;1.30;;;11.20;99.90;;;10.01;67.28;101121.75;5127219;27;20003;-83
2024/04/18 09:26:59;;;;;;;2.65;0.95;;;;;;;9.64;67.46;101115.22;5103655;27;20026;-84
2024/04/18 09:29:27;;;;;;;1.95;1.13;;;11.00;99.90;;;9.74;68.56;101117.50;5130230;27;20050;-83
2024/04/18 09:32:05;;;;;;;2.83;0.90;;;11.00;99.90;;;9.86;68.35;101120.53;5204708;27;20435;-83
2024/04/18 09:34:31;;;;;;;2.05;0.98;;;11.00;99.90;;;9.66;67.47;101128.31;5132661;27;20332;-84
2024/04/18 09:37:05;;;;;;;4.03;1.08;;;11.00;99.90;;;9.61;68.32;101111.84;5181560;27;20102;-84
2024/04/18 09:39:34;;;;;;;1.58;0.88;;;10.90;99.90;;;9.55;68.64;101118.19;5192814;27;20738;-83
2024/04/18 09:42:26;;;;;;;1.98;1.02;;;10.70;99.90;;;9.05;69.23;101115.56;5156936;27;20538;-83
2024/04/18 09:48:18;;;;;;;0.90;0.40;;;9.70;99.90;;;7.23;72.41;101085.22;5062392;27;20477;-83
2024/04/18 09:50:45;;;;;;;1.17;0.52;;;9.10;99.90;;;6.70;73.56;101085.72;5034964;27;20081;-81
2024/04/18 09:53:11;;;;;;;2.97;0.43;;;8.70;99.90;;;6.39;75.32;101096.91;5086142;27;20376;-82
2024/04/18 09:55:45;;;;;;;0.25;0.20;;;8.30;99.90;;;6.16;74.70;101100.91;5095042;27;20017;-82
2024/04/18 09:58:15;;;;;;;1.02;0.40;;;8.10;99.90;;;6.13;74.54;101108.84;5081287;27;20212;-83
2024/04/18 10:00:51;;;;;;;0.38;0.38;;;8.00;99.90;;;6.38;75.28;101095.19;5121203;27;20092;-83
2024/04/18 10:03:18;;;;;;;3.65;0.57;;;8.10;99.90;;;6.78;74.50;101102.06;5119815;27;20372;-83
2024/04/18 10:05:55;;;;;;;1.10;0.40;;;;;;;6.63;72.13;101099.84;5073343;27;20008;-84
2024/04/18 10:08:35;;;;;;;0.45;0.40;;;8.20;99.90;;;6.92;72.50;101106.97;5061389;27;20455;-84
2024/04/18 10:11:02;;;;;;;1.58;0.50;;;8.40;99.90;;;7.32;73.28;101112.03;5027291;27;20005;-83
2024/04/18 10:13:38;;;;;;;;;;;;;;;;;;;;;
2024/04/18 10:16:19;;;;;;;0.93;0.38;;;9.00;99.90;;;8.20;73.14;101112.13;5085443;27;20026;-83
2024/04/18 10:18:45;;;;;;;2.50;0.68;;;9.40;99.90;;;8.67;72.45;101106.34;5055030;27;20079;-83
2024/04/18 10:21:37;;;;;;;2.05;0.40;;;9.90;99.90;;;9.32;72.61;101108.47;5082542;27;20012;-83
2024/04/18 10:24:07;;;;;;;3.28;0.50;;;10.50;99.90;;;9.80;70.60;101122.53;5099775;26;20008;-83
2024/04/18 10:26:38;;;;;;;0.98;0.40;;;11.00;99.90;;;10.17;67.92;101122.03;5184916;26;20013;-83
2024/04/18 10:29:04;;;;;;;2.15;0.40;;;11.40;99.90;;;10.62;67.44;101130.81;5223620;26;20453;-84
2024/04/18 10:31:30;;;;;;;1.52;0.55;;;;;;;11.16;66.66;101140.00;5208920;26;20012;-84
2024/04/18 10:33:57;;;;;;;0.85;0.22;;;12.40;99.90;;;11.73;65.25;101147.22;5208087;26;20041;-85
2024/04/18 10:36:24;;;;;;;0.88;0.50;;;13.00;99.90;;;12.31;64.07;101152.53;5230971;26;20019;-84
2024/04/18 10:38:59;;;;;;;1.27;0.50;;;13.60;99.90;;;12.84;62.54;101172.84;5181496;27;20015;-84
2024/04/18 10:41:25;;;;;;;2.15;0.57;;;13.80;99.90;;;12.27;62.58;101170.28;5241457;26;20005;-83
2024/04/18 10:44:04;;;;;;;2.40;0.80;;;13.50;99.90;;;11.74;61.58;101162.13;5208431;26;20016;-84
2024/04/18 10:46:30;;;;;;;2.38;0.88;;;13.20;99.90;;;11.34;62.96;101148.03;5226199;26;20462;-83
2024/04/18 10:48:57;;;;;;;3.28;1.10;;;13.00;99.90;;;11.47;62.78;101157.16;5211854;26;20005;-83
2024/04/18 10:51:34;;;;;;;2.17;0.60;;;12.90;99.90;;;11.52;63.32;101167.50;5197558;27;20010;-83
2024/04/18 10:54:00;;;;;;;3.95;0.40;;;12.70;99.90;;;10.65;62.89;101155.25;5156053;26;20025;-82
2024/04/18 10:56:26;;;;;;;2.65;0.50;;;12.30;99.90;;;10.22;63.63;101141.13;5191185;27;20011;-83
2024/04/18 10:59:14;;;;;;;0.68;0.57;;;11.90;99.90;;;10.14;64.38;101143.19;5195909;26;20010;-83
2024/04/18 11:01:41;;;;;;;2.58;0.68;;;11.80;99.90;;;10.25;65.67;101137.50;5288800;26;19998;-83
2024/04/18 11:04:10;;;;;;;1.52;0.68;;;11.40;99.90;;;9.56;63.57;101145.34;5156889;26;20387;-85
2024/04/18 11:07:02;;;;;;;2.45;0.50;;;11.40;99.90;;;10.02;62.74;101159.41;5171413;27;20578;-83
2024/04/18 11:09:38;;;;;;;;;;;;;;;;;;;;;
2024/04/18 11:12:05;;;;;;;;;;;11.50;99.90;;;10.51;64.65;101144.41;5174480;26;20007;-85
2024/04/18 11:14:33;;;;;;;2.67;0.40;;;11.70;99.90;;;10.82;63.45;101157.22;5137217;27;19967;-84